createdAt,value
2019-05-13T00:02:08.892Z,13.84
2019-05-13T00:04:39.505Z,13.87
2019-05-13T00:07:10.676Z,13.89
2019-05-13T00:09:44.112Z,13.84
2019-05-13T00:12:13.829Z,13.84
2019-05-13T00:14:44.717Z,13.76
2019-05-13T00:17:15.333Z,13.70
2019-05-13T00:19:45.895Z,13.64
2019-05-13T00:22:16.928Z,13.61
2019-05-13T00:24:47.540Z,13.53
2019-05-13T00:27:18.245Z,13.52
2019-05-13T00:29:48.840Z,13.49
2019-05-13T00:32:19.451Z,13.53
2019-05-13T00:34:50.593Z,13.58
2019-05-13T00:37:21.205Z,13.61
2019-05-13T00:39:54.195Z,13.62
2019-05-13T00:42:24.698Z,13.57
2019-05-13T00:44:55.438Z,13.57
2019-05-13T00:47:25.972Z,13.66
2019-05-13T00:49:56.569Z,13.70
2019-05-13T00:52:27.278Z,13.75
2019-05-13T00:54:58.059Z,13.72
2019-05-13T00:57:28.653Z,13.71
2019-05-13T00:59:59.295Z,13.74
2019-05-13T01:02:29.909Z,13.75
2019-05-13T01:05:00.643Z,13.73
2019-05-13T01:07:33.992Z,13.73
2019-05-13T01:10:04.346Z,13.75
2019-05-13T01:12:35.032Z,13.71
2019-05-13T01:15:07.347Z,13.74
2019-05-13T01:17:38.035Z,13.78
2019-05-13T01:20:09.029Z,13.98
2019-05-13T01:22:40.157Z,14.04
2019-05-13T01:25:11.129Z,14.04
2019-05-13T01:27:44.192Z,14.03
2019-05-13T01:30:14.731Z,14.01
2019-05-13T01:32:45.348Z,14.08
2019-05-13T01:35:15.959Z,14.06
2019-05-13T01:37:46.650Z,14.05
2019-05-13T01:40:17.255Z,14.02
2019-05-13T01:42:47.996Z,13.99
2019-05-13T01:45:18.720Z,13.95
2019-05-13T01:47:49.572Z,13.99
2019-05-13T01:50:20.210Z,13.94
2019-05-13T01:52:53.240Z,13.87
2019-05-13T01:55:24.425Z,13.89
2019-05-13T01:57:55.518Z,13.85
2019-05-13T02:00:26.441Z,13.84
2019-05-13T02:02:57.381Z,13.83
2019-05-13T02:05:29.477Z,13.83
2019-05-13T02:08:00.872Z,13.87
2019-05-13T02:10:54.375Z,13.92
2019-05-13T02:13:25.333Z,13.95
2019-05-13T02:15:56.629Z,13.93
2019-05-13T02:18:27.240Z,13.90
2019-05-13T02:20:58.524Z,13.90
2019-05-13T02:23:29.837Z,13.88
2019-05-13T02:26:00.757Z,13.80
2019-05-13T02:28:33.387Z,13.77
2019-05-13T02:31:03.776Z,13.78
2019-05-13T02:33:35.023Z,13.77
2019-05-13T02:36:06.044Z,13.75
2019-05-13T02:38:36.698Z,13.75
2019-05-13T02:41:07.439Z,13.77
2019-05-13T02:43:41.338Z,13.73
2019-05-13T02:46:12.871Z,13.74
2019-05-13T02:48:42.906Z,13.76
2019-05-13T02:51:13.648Z,13.79
2019-05-13T02:53:44.791Z,13.75
2019-05-13T02:56:15.519Z,13.89
2019-05-13T02:58:46.062Z,13.93
2019-05-13T03:01:16.706Z,14.03
2019-05-13T03:03:47.399Z,14.18
2019-05-13T03:06:18.021Z,14.41
2019-05-13T03:08:53.248Z,14.62
2019-05-13T03:11:22.753Z,14.75
2019-05-13T03:13:54.871Z,15.00
2019-05-13T03:16:27.131Z,15.25
2019-05-13T03:18:57.756Z,15.29
2019-05-13T03:21:32.444Z,15.35
2019-05-13T03:24:03.464Z,15.36
2019-05-13T03:26:34.645Z,15.60
2019-05-13T03:29:06.743Z,15.72
2019-05-13T03:31:37.466Z,15.94
2019-05-13T03:34:08.344Z,15.68
2019-05-13T03:36:44.915Z,15.61
2019-05-13T03:39:15.905Z,15.46
2019-05-13T03:41:46.563Z,15.48
2019-05-13T03:44:19.068Z,15.51
2019-05-13T03:46:52.883Z,15.49
2019-05-13T03:49:26.751Z,15.51
2019-05-13T03:51:57.939Z,15.53
2019-05-13T03:54:32.921Z,15.58
2019-05-13T03:57:04.208Z,15.93
2019-05-13T03:59:35.110Z,15.96
2019-05-13T04:02:05.732Z,16.06
2019-05-13T04:04:36.252Z,16.20
2019-05-13T04:07:06.965Z,16.28
2019-05-13T04:09:37.665Z,16.55
2019-05-13T04:12:08.275Z,16.47
2019-05-13T04:14:42.149Z,16.56
2019-05-13T04:17:12.629Z,16.49
2019-05-13T04:19:43.813Z,17.28
2019-05-13T04:22:16.012Z,18.26
2019-05-13T04:24:46.614Z,19.29
2019-05-13T04:27:17.353Z,19.71
2019-05-13T04:29:48.485Z,20.09
2019-05-13T04:32:19.069Z,19.90
2019-05-13T04:34:52.842Z,20.02
2019-05-13T04:37:22.740Z,21.09
2019-05-13T04:39:56.282Z,21.91
2019-05-13T04:42:25.853Z,22.29
2019-05-13T04:44:56.585Z,22.48
2019-05-13T04:47:27.336Z,23.70
2019-05-13T04:49:58.758Z,23.59
2019-05-13T04:52:33.049Z,22.32
2019-05-13T04:55:03.522Z,23.96
2019-05-13T04:57:34.338Z,24.04
2019-05-13T05:00:07.700Z,23.32
2019-05-13T05:02:58.255Z,24.90
2019-05-13T05:05:52.740Z,24.41
2019-05-13T05:08:28.318Z,24.59
2019-05-13T05:11:33.889Z,24.39
2019-05-13T05:14:22.241Z,23.08
2019-05-13T05:17:16.733Z,23.67
2019-05-13T05:19:55.546Z,22.42
2019-05-13T05:22:48.768Z,23.62
2019-05-13T05:25:25.185Z,23.52
2019-05-13T05:28:21.763Z,24.14
2019-05-13T05:31:28.267Z,22.51
2019-05-13T05:34:14.010Z,20.60
2019-05-13T05:37:02.757Z,21.50
2019-05-13T05:39:33.397Z,20.77
2019-05-13T05:42:05.915Z,20.67
2019-05-13T05:44:42.196Z,20.58
2019-05-13T05:47:21.203Z,20.53
2019-05-13T05:49:56.150Z,20.44
2019-05-13T05:52:32.615Z,19.99
2019-05-13T05:55:03.956Z,20.02
2019-05-13T05:57:42.336Z,19.69
2019-05-13T06:00:17.230Z,19.81
2019-05-13T06:03:21.925Z,20.11
2019-05-13T06:05:57.300Z,20.82
2019-05-13T06:08:32.297Z,21.17
2019-05-13T06:11:04.561Z,21.20
2019-05-13T06:13:36.775Z,22.26
2019-05-13T06:16:09.165Z,22.26
2019-05-13T06:18:41.533Z,21.34
2019-05-13T06:21:12.373Z,21.90
2019-05-13T06:23:44.697Z,22.08
2019-05-13T06:26:17.144Z,22.60
2019-05-13T06:28:48.040Z,21.90
2019-05-13T06:31:24.301Z,22.38
2019-05-13T06:33:55.124Z,21.29
2019-05-13T06:36:26.715Z,20.77
2019-05-13T06:39:02.227Z,21.83
2019-05-13T06:41:32.557Z,22.12
2019-05-13T06:44:05.115Z,21.60
2019-05-13T06:46:36.251Z,21.63
2019-05-13T06:49:06.868Z,22.17
2019-05-13T06:51:37.516Z,22.77
2019-05-13T06:54:08.139Z,23.34
2019-05-13T06:56:38.781Z,21.37
2019-05-13T06:59:11.710Z,21.22
2019-05-13T07:01:42.448Z,20.90
2019-05-13T07:04:13.268Z,20.95
2019-05-13T07:06:43.875Z,21.13
2019-05-13T07:09:14.493Z,21.58
2019-05-13T07:11:45.245Z,21.48
2019-05-13T07:14:16.071Z,20.86
2019-05-13T07:16:46.881Z,21.15
2019-05-13T07:19:17.510Z,21.59
2019-05-13T07:21:48.128Z,22.14
2019-05-13T07:24:21.257Z,22.20
2019-05-13T07:26:52.358Z,21.44
2019-05-13T07:29:24.281Z,21.73
2019-05-13T07:31:55.022Z,23.15
2019-05-13T07:34:25.687Z,22.91
2019-05-13T07:36:56.426Z,22.78
2019-05-13T07:39:27.067Z,22.82
2019-05-13T07:41:57.897Z,22.85
2019-05-13T07:44:28.520Z,21.78
2019-05-13T07:46:59.179Z,22.83
2019-05-13T07:49:31.551Z,22.85
2019-05-13T07:52:02.730Z,22.85
2019-05-13T07:54:33.426Z,23.91
2019-05-13T07:57:04.031Z,24.06
2019-05-13T07:59:36.215Z,23.66
2019-05-13T08:02:06.852Z,23.23
2019-05-13T08:04:42.085Z,23.05
2019-05-13T08:07:12.998Z,22.98
2019-05-13T08:09:43.686Z,23.20
2019-05-13T08:12:14.835Z,23.35
2019-05-13T08:14:45.588Z,22.88
2019-05-13T08:17:16.238Z,21.89
2019-05-13T08:19:46.942Z,21.76
2019-05-13T08:22:17.622Z,21.94
2019-05-13T08:24:52.031Z,22.20
2019-05-13T08:27:30.421Z,22.46
2019-05-13T08:29:54.084Z,22.29
2019-05-13T08:32:25.266Z,22.20
2019-05-13T08:35:01.724Z,22.63
2019-05-13T08:37:28.266Z,22.76
2019-05-13T08:40:01.355Z,23.16
2019-05-13T08:42:32.291Z,23.24
2019-05-13T08:45:03.091Z,22.67
2019-05-13T08:47:33.710Z,22.80
2019-05-13T08:50:05.162Z,22.88
2019-05-13T08:52:35.739Z,22.99
2019-05-13T08:55:07.952Z,22.53
2019-05-13T08:57:38.578Z,22.83
2019-05-13T09:00:09.402Z,22.91
2019-05-13T09:02:42.019Z,22.89
2019-05-13T09:05:13.935Z,22.84
2019-05-13T09:07:44.788Z,22.35
2019-05-13T09:10:15.906Z,22.47
2019-05-13T09:12:48.857Z,22.62
2019-05-13T09:15:22.297Z,22.55
2019-05-13T09:17:51.832Z,22.86
2019-05-13T09:20:22.405Z,22.48
2019-05-13T09:22:53.026Z,22.02
2019-05-13T09:25:23.787Z,22.57
2019-05-13T09:27:54.377Z,22.72
2019-05-13T09:30:27.281Z,22.61
2019-05-13T09:32:57.359Z,23.07
2019-05-13T09:35:28.113Z,23.65
2019-05-13T09:37:58.823Z,23.23
2019-05-13T09:40:31.430Z,23.18
2019-05-13T09:43:02.648Z,23.38
2019-05-13T09:45:33.774Z,23.43
2019-05-13T09:48:04.674Z,23.86
2019-05-13T09:50:37.000Z,24.09
2019-05-13T09:53:07.653Z,23.94
2019-05-13T09:55:38.366Z,23.51
2019-05-13T09:58:11.675Z,23.26
2019-05-13T10:00:42.646Z,23.37
2019-05-13T10:03:14.149Z,22.75
2019-05-13T10:05:45.039Z,22.55
2019-05-13T10:08:15.698Z,23.03
2019-05-13T10:10:46.412Z,23.49
2019-05-13T10:13:17.263Z,23.77
2019-05-13T10:15:48.860Z,23.81
2019-05-13T10:18:21.890Z,23.26
2019-05-13T10:20:58.251Z,23.11
2019-05-13T10:23:28.275Z,23.14
2019-05-13T10:26:04.648Z,23.22
2019-05-13T10:28:35.669Z,22.92
2019-05-13T10:31:06.833Z,22.66
2019-05-13T10:33:37.787Z,22.64
2019-05-13T10:36:08.457Z,21.97
2019-05-13T10:38:41.314Z,21.60
2019-05-13T10:41:12.047Z,20.59
2019-05-13T10:55:24.647Z,18.84
2019-05-13T10:57:55.277Z,19.07
2019-05-13T11:00:37.095Z,19.23
2019-05-13T11:03:07.700Z,19.17
2019-05-13T11:05:42.102Z,19.62
2019-05-13T11:08:11.242Z,19.71
2019-05-13T11:10:42.238Z,20.33
2019-05-13T11:13:13.863Z,20.13
2019-05-13T11:15:45.323Z,20.77
2019-05-13T11:18:19.452Z,21.31
2019-05-13T11:20:49.420Z,20.97
2019-05-13T11:23:22.956Z,21.36
2019-05-13T11:25:52.596Z,21.36
2019-05-13T11:28:23.341Z,21.36
2019-05-13T11:30:59.338Z,21.66
2019-05-13T11:35:31.985Z,21.65
2019-05-13T11:38:02.720Z,21.82
2019-05-13T11:40:33.374Z,22.54
2019-05-13T11:43:04.023Z,22.41
2019-05-13T11:45:34.738Z,23.10
2019-05-13T11:48:05.570Z,23.94
2019-05-13T11:50:36.561Z,23.74
2019-05-13T11:53:30.164Z,23.80
2019-05-13T11:55:42.509Z,23.68
2019-05-13T11:58:14.159Z,23.85
2019-05-13T12:00:53.214Z,24.48
2019-05-13T12:03:23.402Z,24.01
2019-05-13T12:05:55.190Z,23.60
2019-05-13T12:08:27.229Z,23.52
2019-05-13T12:10:57.989Z,23.74
2019-05-13T12:13:28.814Z,22.80
2019-05-13T12:16:03.271Z,23.03
